Time;durP1;ratioP1;P1;durP2;ratioP2;P2;SDS_P1;SDS_P2;PMS_P1;PMS_P2;Temp;Humidity;BMP_temperature;BMP_pressure;BME280_temperature;BME280_humidity;BME280_pressure;Samples;Min_cycle;Max_cycle;Signal;HPM_P1;HPM_P2
2021/11/01 00:00:55;;;;;;;7.00;2.72;;;11.30;82.30;;;;;;5102099;28;20175;-81
2021/11/01 00:03:20;;;;;;;6.07;2.30;;;11.30;82.00;;;;;;5101291;28;20200;-81
2021/11/01 00:05:47;;;;;;;5.23;2.17;;;11.30;81.80;;;;;;5103116;28;20180;-82
2021/11/01 00:08:13;;;;;;;7.13;2.55;;;11.30;81.70;;;;;;5102023;28;20176;-82
2021/11/01 00:10:39;;;;;;;6.17;3.00;;;11.30;81.40;;;;;;5102641;28;20179;-82
2021/11/01 00:13:05;;;;;;;11.95;3.75;;;11.40;81.40;;;;;;5113779;28;20194;-82
2021/11/01 00:15:31;;;;;;;8.70;2.90;;;11.40;81.20;;;;;;5123576;28;20203;-82
2021/11/01 00:17:57;;;;;;;11.17;3.10;;;11.40;81.00;;;;;;5122558;28;20409;-81
2021/11/01 00:20:24;;;;;;;5.07;2.75;;;11.30;81.00;;;;;;5125232;28;20430;-81
2021/11/01 00:22:50;;;;;;;11.27;3.35;;;11.40;81.20;;;;;;5122540;28;20202;-81
2021/11/01 00:25:16;;;;;;;13.60;4.50;;;11.40;81.10;;;;;;5121400;28;20202;-81
2021/11/01 00:27:42;;;;;;;9.68;4.10;;;11.40;80.90;;;;;;5121196;28;20924;-82
2021/11/01 00:30:10;;;;;;;15.57;4.43;;;11.30;81.20;;;;;;5122412;28;20178;-81
2021/11/01 00:32:36;;;;;;;10.00;3.22;;;11.30;81.20;;;;;;5121099;28;20231;-81
2021/11/01 00:35:04;;;;;;;7.60;3.97;;;11.50;81.30;;;;;;5122128;28;20218;-81
2021/11/01 00:37:29;;;;;;;12.93;4.50;;;11.40;81.10;;;;;;5120034;28;20175;-81
2021/11/01 00:39:57;;;;;;;15.83;3.33;;;11.40;81.10;;;;;;5120432;28;20190;-81
2021/11/01 00:42:24;;;;;;;7.13;3.22;;;11.50;81.40;;;;;;5120430;28;20171;-81
2021/11/01 00:44:50;;;;;;;6.85;3.45;;;11.50;81.10;;;;;;5121460;28;20203;-80
2021/11/01 00:47:16;;;;;;;7.73;2.27;;;11.40;80.80;;;;;;5121595;28;20175;-81
2021/11/01 00:49:42;;;;;;;8.63;2.57;;;11.40;80.80;;;;;;5121753;28;20179;-80
2021/11/01 00:52:08;;;;;;;6.53;2.83;;;11.20;80.70;;;;;;5121948;28;20420;-80
2021/11/01 00:54:35;;;;;;;11.35;3.38;;;11.30;81.30;;;;;;5120535;28;20207;-80
2021/11/01 00:57:03;;;;;;;4.20;2.78;;;11.20;81.90;;;;;;5121097;28;20163;-80
2021/11/01 00:59:29;;;;;;;5.65;3.08;;;11.30;82.10;;;;;;5120677;28;20175;-81
2021/11/01 01:01:55;;;;;;;16.70;2.93;;;11.30;81.50;;;;;;5118702;28;20201;-81
2021/11/01 01:04:24;;;;;;;8.32;3.28;;;11.20;81.30;;;;;;5119866;28;20187;-81
2021/11/01 01:06:49;;;;;;;4.78;2.55;;;11.20;81.40;;;;;;5116111;28;20179;-80
2021/11/01 01:09:15;;;;;;;8.50;3.10;;;11.30;81.40;;;;;;5117046;28;20170;-81
2021/11/01 01:11:41;;;;;;;9.40;3.03;;;11.20;81.40;;;;;;5117224;28;20179;-81
2021/11/01 01:14:07;;;;;;;6.25;2.53;;;11.30;81.70;;;;;;5098194;28;20192;-81
2021/11/01 01:16:40;;;;;;;9.57;2.90;;;11.40;81.60;;;;;;5100770;28;20184;-81
2021/11/01 01:19:14;;;;;;;11.27;3.63;;;11.40;81.70;;;;;;5101319;28;20390;-81
2021/11/01 01:24:24;;;;;;;19.58;2.80;;;11.30;81.30;;;;;;5100376;28;20743;-80
2021/11/01 01:26:49;;;;;;;10.43;2.17;;;11.30;81.80;;;;;;5100145;28;20184;-81
2021/11/01 01:29:15;;;;;;;17.43;3.27;;;11.10;81.50;;;;;;5100209;28;20643;-81
2021/11/01 01:31:41;;;;;;;6.03;2.50;;;11.00;81.70;;;;;;5096966;28;20172;-81
2021/11/01 01:34:08;;;;;;;20.83;3.88;;;11.00;82.20;;;;;;5092032;28;20630;-81
2021/11/01 01:36:33;;;;;;;19.95;3.20;;;11.00;82.30;;;;;;5093622;28;20762;-81
2021/11/01 01:38:59;;;;;;;7.03;3.00;;;11.00;82.50;;;;;;5097009;28;20180;-81
2021/11/01 01:41:27;;;;;;;9.07;3.00;;;11.10;82.60;;;;;;5097497;28;20180;-81
2021/11/01 01:43:57;;;;;;;10.23;3.63;;;11.00;82.50;;;;;;5097713;28;20422;-81
2021/11/01 01:46:28;;;;;;;7.90;3.00;;;11.10;82.60;;;;;;5096865;28;20180;-81
2021/11/01 01:48:56;;;;;;;9.20;3.47;;;11.20;82.50;;;;;;5098012;28;20564;-82
2021/11/01 01:51:25;;;;;;;20.08;2.70;;;11.10;82.00;;;;;;5096945;28;20184;-81
2021/11/01 01:53:51;;;;;;;23.33;3.30;;;10.80;82.40;;;;;;5097936;28;20651;-81
2021/11/01 01:56:17;;;;;;;18.60;3.93;;;10.90;82.90;;;;;;5097007;28;20218;-81
2021/11/01 01:58:49;;;;;;;12.85;3.63;;;10.80;83.20;;;;;;5097081;28;20532;-81
2021/11/01 02:01:15;;;;;;;7.22;2.70;;;10.80;83.50;;;;;;5096148;28;20192;-80
2021/11/01 02:03:46;;;;;;;19.80;3.03;;;10.70;83.50;;;;;;5096373;28;20682;-81
2021/11/01 02:06:14;;;;;;;5.32;2.70;;;10.70;83.50;;;;;;5097284;28;20179;-81
2021/11/01 02:08:52;;;;;;;11.70;3.10;;;10.90;83.70;;;;;;5097107;28;20237;-81
2021/11/01 02:11:30;;;;;;;7.50;2.70;;;10.90;83.30;;;;;;5098043;28;20217;-81
2021/11/01 02:13:58;;;;;;;9.68;2.63;;;10.80;83.30;;;;;;5098726;28;20202;-81
2021/11/01 02:16:28;;;;;;;27.77;3.03;;;10.80;83.20;;;;;;5101318;28;20208;-81
2021/11/01 02:18:56;;;;;;;5.63;2.60;;;10.80;83.30;;;;;;5100535;28;20544;-80
2021/11/01 02:21:37;;;;;;;8.05;2.55;;;10.90;83.60;;;;;;5100267;28;20175;-80
2021/11/01 02:24:07;;;;;;;10.63;2.45;;;10.80;83.30;;;;;;5084220;28;20723;-81
2021/11/01 02:26:35;;;;;;;6.75;2.90;;;10.90;83.50;;;;;;5100647;28;20191;-80
2021/11/01 02:29:02;;;;;;;4.65;1.75;;;10.90;83.30;;;;;;5100578;28;20211;-80
2021/11/01 02:31:28;;;;;;;8.48;2.30;;;10.80;83.30;;;;;;5101286;28;20595;-80
2021/11/01 02:33:55;;;;;;;14.07;2.67;;;10.90;83.50;;;;;;5101499;28;20244;-80
2021/11/01 02:36:21;;;;;;;12.68;3.53;;;10.80;83.40;;;;;;5102296;28;20195;-80
2021/11/01 02:38:51;;;;;;;12.13;2.60;;;10.70;83.30;;;;;;5100981;28;20250;-80
2021/11/01 02:41:23;;;;;;;11.30;5.65;;;10.90;83.50;;;;;;5102707;28;20803;-80
2021/11/01 02:43:51;;;;;;;14.05;2.80;;;11.00;83.10;;;;;;5101139;28;20271;-80
2021/11/01 02:46:17;;;;;;;14.05;2.35;;;11.10;83.00;;;;;;5101320;28;20544;-80
2021/11/01 02:48:50;;;;;;;7.73;2.53;;;11.10;82.80;;;;;;5100523;28;20270;-80
2021/11/01 02:51:18;;;;;;;6.95;2.47;;;11.10;82.60;;;;;;5084612;28;20421;-81
2021/11/01 02:53:44;;;;;;;9.27;3.13;;;11.20;82.70;;;;;;5103570;28;20555;-81
2021/11/01 02:56:11;;;;;;;10.98;3.50;;;11.10;82.80;;;;;;5102618;28;20191;-81
2021/11/01 02:58:40;;;;;;;10.40;2.60;;;11.20;82.70;;;;;;5102798;28;20510;-81
2021/11/01 03:01:08;;;;;;;7.18;2.35;;;11.10;82.70;;;;;;5101727;28;20176;-80
2021/11/01 03:03:36;;;;;;;8.13;2.70;;;11.10;82.60;;;;;;5101203;28;20198;-81
2021/11/01 03:06:03;;;;;;;12.63;2.35;;;11.10;82.50;;;;;;5100773;28;20225;-80
2021/11/01 03:08:30;;;;;;;8.27;2.80;;;11.20;82.40;;;;;;5100672;28;20184;-80
2021/11/01 03:10:57;;;;;;;9.30;2.88;;;11.10;82.00;;;;;;5100587;28;20263;-80
2021/11/01 03:13:27;;;;;;;18.35;3.53;;;11.20;82.00;;;;;;5113483;28;20222;-81
2021/11/01 03:15:56;;;;;;;16.30;3.10;;;11.00;81.80;;;;;;5121710;28;20202;-80
2021/11/01 03:18:28;;;;;;;11.98;3.22;;;10.90;82.00;;;;;;5122395;28;20179;-79
2021/11/01 03:20:57;;;;;;;5.72;3.40;;;11.10;82.20;;;;;;5135519;28;20518;-80
2021/11/01 03:23:27;;;;;;;11.90;2.97;;;11.00;81.90;;;;;;5135845;28;20213;-80
2021/11/01 03:26:04;;;;;;;15.05;3.45;;;11.00;81.80;;;;;;5133519;28;20405;-79
2021/11/01 03:28:32;;;;;;;14.63;2.47;;;11.10;81.90;;;;;;5136495;28;20226;-80
2021/11/01 03:31:00;;;;;;;7.35;2.40;;;11.00;82.00;;;;;;5133967;28;20175;-80
2021/11/01 03:33:29;;;;;;;10.77;2.70;;;10.70;81.80;;;;;;5124234;28;20195;-80
2021/11/01 03:35:56;;;;;;;10.77;2.70;;;10.70;83.10;;;;;;5122773;28;20191;-79
2021/11/01 03:38:22;;;;;;;19.00;3.58;;;10.90;82.50;;;;;;5122137;28;20175;-80
2021/11/01 03:40:48;;;;;;;14.32;2.75;;;10.60;82.10;;;;;;5121114;28;20588;-79
2021/11/01 03:43:26;;;;;;;11.27;2.50;;;10.70;82.50;;;;;;5119714;28;20650;-80
2021/11/01 03:45:53;;;;;;;9.65;2.35;;;10.70;82.40;;;;;;5121410;28;20189;-80
2021/11/01 03:48:21;;;;;;;10.60;2.38;;;10.70;82.50;;;;;;5120599;28;20179;-80
2021/11/01 03:50:56;;;;;;;8.30;3.50;;;10.60;82.30;;;;;;5119947;28;20179;-80
2021/11/01 03:53:22;;;;;;;12.02;3.13;;;10.50;82.70;;;;;;5119253;28;20203;-80
2021/11/01 03:55:48;;;;;;;12.70;2.47;;;10.50;83.00;;;;;;5086938;28;20239;-80
2021/11/01 03:58:15;;;;;;;10.20;3.65;;;10.60;83.10;;;;;;5095959;28;20177;-80
2021/11/01 04:00:42;;;;;;;8.43;2.58;;;10.80;83.20;;;;;;5095598;28;20222;-80
2021/11/01 04:03:08;;;;;;;12.02;3.85;;;10.90;82.90;;;;;;5094316;28;20173;-81
2021/11/01 04:05:34;;;;;;;14.00;4.23;;;10.70;82.40;;;;;;5079694;28;20179;-80
2021/11/01 04:08:00;;;;;;;15.03;5.07;;;10.60;82.30;;;;;;5095111;28;20419;-81
2021/11/01 04:10:26;;;;;;;17.65;4.10;;;10.60;82.60;;;;;;5096639;28;20227;-82
2021/11/01 04:12:52;;;;;;;18.05;3.65;;;10.60;82.50;;;;;;5109998;28;20231;-80
2021/11/01 04:15:21;;;;;;;11.63;4.60;;;10.80;82.80;;;;;;5121061;28;20226;-80
2021/11/01 04:18:02;;;;;;;14.80;3.50;;;10.70;82.40;;;;;;5119884;28;20175;-80
2021/11/01 04:20:34;;;;;;;17.25;3.95;;;10.80;82.40;;;;;;5118595;28;20558;-80
2021/11/01 04:23:10;;;;;;;9.30;3.15;;;10.70;82.40;;;;;;5117706;28;20156;-81
2021/11/01 04:25:36;;;;;;;8.10;3.83;;;10.80;82.40;;;;;;5116892;28;20151;-81
2021/11/01 04:28:03;;;;;;;16.73;3.17;;;10.70;82.10;;;;;;5121140;28;20182;-80
2021/11/01 04:30:36;;;;;;;10.93;3.60;;;10.60;82.10;;;;;;5123254;28;20167;-80
2021/11/01 04:33:04;;;;;;;13.68;4.25;;;10.40;82.40;;;;;;5124057;28;20320;-81
2021/11/01 04:35:34;;;;;;;11.35;3.20;;;10.60;83.10;;;;;;5122389;28;20265;-80
2021/11/01 04:53:51;;;;;;;12.30;5.78;;;10.70;82.30;;;;;;5119940;28;20248;-80
2021/11/01 04:56:25;;;;;;;11.93;3.10;;;10.60;82.00;;;;;;5120559;28;20197;-81
2021/11/01 04:58:52;;;;;;;19.65;3.50;;;10.70;82.40;;;;;;5122714;27;20170;-81
2021/11/01 05:01:33;;;;;;;19.90;4.75;;;10.80;83.10;;;;;;5122920;28;20167;-80
2021/11/01 05:04:03;;;;;;;15.00;3.67;;;10.60;82.10;;;;;;5119256;28;20277;-80
2021/11/01 05:06:29;;;;;;;11.02;3.63;;;10.80;82.30;;;;;;5120904;28;20606;-80
2021/11/01 05:09:07;;;;;;;11.63;3.05;;;10.80;82.20;;;;;;5120054;28;20989;-80
2021/11/01 05:11:39;;;;;;;8.73;3.30;;;10.70;82.20;;;;;;5134451;28;20220;-81
2021/11/01 05:14:05;;;;;;;12.95;3.78;;;10.70;82.40;;;;;;5136463;28;20244;-80
2021/11/01 05:22:19;;;;;;;11.32;3.88;;;10.80;81.90;;;;;;5137204;28;20598;-80
2021/11/01 05:29:36;;;;;;;12.85;4.00;;;10.70;82.50;;;;;;5129659;28;20182;-80
2021/11/01 05:32:14;;;;;;;23.42;3.95;;;10.70;82.40;;;;;;5123632;28;20212;-80
2021/11/01 05:34:39;;;;;;;11.15;3.17;;;10.70;82.40;;;;;;5100526;28;20217;-80
2021/11/01 05:37:06;;;;;;;15.17;4.00;;;10.60;82.20;;;;;;5100350;28;20274;-80
2021/11/01 05:39:32;;;;;;;7.72;2.70;;;10.60;82.40;;;;;;5100651;28;20214;-80
2021/11/01 05:41:58;;;;;;;13.65;3.80;;;10.60;82.30;;;;;;5101844;28;20172;-80
2021/11/01 05:44:24;;;;;;;7.83;3.10;;;10.60;82.50;;;;;;5099415;28;20296;-80
2021/11/01 05:46:51;;;;;;;11.70;2.63;;;10.70;82.70;;;;;;5104968;28;20263;-80
2021/11/01 05:49:19;;;;;;;7.45;3.03;;;10.70;82.40;;;;;;5106969;28;20178;-80
2021/11/01 05:51:45;;;;;;;10.45;2.88;;;10.70;82.40;;;;;;5109100;28;20191;-80
2021/11/01 05:54:15;;;;;;;13.35;2.47;;;10.70;82.30;;;;;;5096912;28;20200;-79
2021/11/01 06:04:55;;;;;;;12.07;3.20;;;10.90;81.90;;;;;;5108442;28;20211;-80
2021/11/01 06:15:18;;;;;;;4.95;2.30;;;10.80;81.80;;;;;;5125171;28;20210;-80
2021/11/01 06:17:44;;;;;;;11.00;3.37;;;10.80;81.70;;;;;;5124266;28;20179;-80
2021/11/01 06:20:12;;;;;;;9.30;2.23;;;10.90;81.80;;;;;;5123940;28;20405;-80
2021/11/01 06:22:39;;;;;;;11.80;3.20;;;10.80;81.40;;;;;;5123726;28;20168;-80
2021/11/01 06:25:07;;;;;;;13.65;2.88;;;10.80;81.40;;;;;;5125621;28;20262;-80
2021/11/01 06:27:34;;;;;;;11.25;2.90;;;10.70;81.30;;;;;;5123395;28;20248;-80
2021/11/01 06:32:41;;;;;;;7.82;2.72;;;10.60;82.40;;;;;;5121703;28;20179;-80
2021/11/01 06:40:46;;;;;;;11.95;2.85;;;10.70;81.60;;;;;;5105363;28;20190;-80
2021/11/01 06:53:51;;;;;;;11.80;2.42;;;10.90;81.10;;;;;;5102513;28;20202;-80
2021/11/01 07:15:38;;;;;;;16.50;3.75;;;10.80;81.20;;;;;;5092147;28;20203;-79
2021/11/01 08:22:52;;;;;;;5.22;2.20;;;11.60;78.10;;;;;;5121014;28;20582;-80
2021/11/01 08:34:35;;;;;;;6.00;1.85;;;11.80;76.90;;;;;;5079080;28;20218;-80
2021/11/01 08:50:30;;;;;;;2.60;1.92;;;11.80;76.30;;;;;;5119892;28;20183;-80
2021/11/01 09:03:56;;;;;;;14.10;1.90;;;11.80;76.70;;;;;;5119788;28;20194;-80
2021/11/01 09:20:07;;;;;;;6.90;1.73;;;12.30;75.20;;;;;;5099660;28;20179;-80
2021/11/01 09:25:26;;;;;;;4.50;1.75;;;12.20;74.50;;;;;;5105146;28;20202;-80
2021/11/01 09:27:58;;;;;;;5.28;1.52;;;12.20;74.60;;;;;;5103785;28;20220;-81
2021/11/01 09:36:41;;;;;;;8.80;1.70;;;12.30;74.80;;;;;;5104826;28;20225;-80
2021/11/01 09:41:22;;;;;;;5.18;1.75;;;12.70;74.80;;;;;;5104407;28;20171;-81
2021/11/01 09:43:52;;;;;;;5.75;1.60;;;12.60;73.50;;;;;;5102870;28;20195;-81
2021/11/01 09:46:20;;;;;;;8.43;2.58;;;12.70;73.50;;;;;;5101315;28;20180;-81
2021/11/01 09:48:46;;;;;;;6.68;2.40;;;12.40;72.70;;;;;;5102969;28;20213;-81
2021/11/01 09:51:12;;;;;;;5.83;1.97;;;12.70;73.50;;;;;;5101178;28;20180;-81
2021/11/01 09:53:40;;;;;;;5.90;2.17;;;12.60;72.60;;;;;;5100378;28;21043;-81
2021/11/01 09:56:30;;;;;;;5.57;1.65;;;12.80;72.70;;;;;;5100193;28;20231;-81
2021/11/01 09:59:11;;;;;;;9.57;3.72;;;12.80;72.00;;;;;;5101031;28;20176;-81
2021/11/01 10:01:50;;;;;;;2.42;1.73;;;12.80;71.70;;;;;;5101244;28;20208;-80
2021/11/01 10:04:36;;;;;;;3.72;2.13;;;13.00;72.10;;;;;;5100882;28;20255;-81
2021/11/01 10:07:44;;;;;;;8.20;1.70;;;13.10;72.10;;;;;;5103171;28;20166;-80
2021/11/01 10:10:12;;;;;;;7.03;1.80;;;13.30;71.50;;;;;;5100506;28;20183;-80
2021/11/01 10:12:40;;;;;;;4.50;1.70;;;13.40;71.50;;;;;;5110353;28;20205;-80
2021/11/01 10:18:04;;;;;;;7.25;1.65;;;13.40;70.70;;;;;;5123434;28;20668;-81
2021/11/01 10:20:32;;;;;;;4.97;2.30;;;13.40;70.40;;;;;;5121566;28;20175;-80
2021/11/01 10:22:58;;;;;;;6.63;1.60;;;13.40;70.50;;;;;;5120754;28;20182;-81
2021/11/01 10:25:25;;;;;;;5.97;1.80;;;13.40;69.80;;;;;;5122817;28;20638;-80
2021/11/01 10:27:57;;;;;;;3.70;1.75;;;13.50;70.10;;;;;;5121047;28;20179;-80
2021/11/01 10:30:28;;;;;;;6.88;2.35;;;13.60;70.20;;;;;;5121948;28;20225;-81
2021/11/01 10:32:55;;;;;;;6.75;1.52;;;13.70;70.30;;;;;;5120321;28;20179;-81
2021/11/01 10:35:22;;;;;;;6.88;1.42;;;13.90;70.20;;;;;;5120170;28;20207;-81
2021/11/01 10:38:31;;;;;;;4.00;1.42;;;14.00;69.50;;;;;;5119858;28;20717;-81
2021/11/01 10:57:55;;;;;;;6.80;2.75;;;14.30;68.10;;;;;;5102006;28;20678;-81
2021/11/01 11:49:07;;;;;;;13.35;2.13;;;14.70;66.90;;;;;;5101686;28;20549;-80
2021/11/01 11:51:33;;;;;;;4.00;1.63;;;14.90;66.20;;;;;;5101724;28;20182;-80
2021/11/01 11:54:01;;;;;;;6.07;2.22;;;14.90;65.40;;;;;;5100878;28;20335;-80
2021/11/01 11:56:33;;;;;;;12.10;2.92;;;14.90;64.70;;;;;;5099846;28;20196;-80
2021/11/01 11:59:10;;;;;;;3.40;1.77;;;14.70;64.90;;;;;;5101715;28;20262;-80
2021/11/01 12:01:43;;;;;;;14.93;1.73;;;14.70;65.20;;;;;;5101498;28;20148;-80
2021/11/01 12:04:22;;;;;;;3.55;1.98;;;14.70;65.40;;;;;;5101014;28;20554;-80
2021/11/01 12:07:02;;;;;;;4.13;1.50;;;14.80;66.00;;;;;;5099780;28;20586;-80
2021/11/01 12:09:45;;;;;;;8.02;2.83;;;14.80;64.90;;;;;;5100388;28;20196;-80
2021/11/01 12:17:48;;;;;;;8.80;2.50;;;14.70;66.20;;;;;;5122337;28;20174;-81
2021/11/01 12:20:14;;;;;;;11.75;1.75;;;15.00;65.30;;;;;;5121710;28;20159;-81
2021/11/01 12:22:44;;;;;;;6.87;1.90;;;15.00;65.60;;;;;;5116251;28;20703;-80
2021/11/01 12:25:15;;;;;;;9.55;2.10;;;15.20;64.80;;;;;;5098665;28;20446;-81
2021/11/01 12:27:45;;;;;;;5.35;1.63;;;15.20;64.10;;;;;;5099298;28;20184;-81
2021/11/01 12:30:16;;;;;;;5.32;1.58;;;14.80;63.20;;;;;;5099073;28;20172;-80
2021/11/01 12:32:42;;;;;;;5.10;1.60;;;14.90;64.10;;;;;;5100778;28;20190;-81
2021/11/01 12:35:17;;;;;;;7.83;2.23;;;15.00;63.90;;;;;;5099017;28;20204;-81
2021/11/01 12:38:14;;;;;;;6.45;1.83;;;14.80;63.60;;;;;;5101003;28;20175;-80
2021/11/01 12:40:49;;;;;;;4.50;1.40;;;14.90;64.00;;;;;;5099482;28;20170;-81
2021/11/01 12:48:43;;;;;;;4.53;2.03;;;14.90;63.10;;;;;;5104791;28;20270;-81
2021/11/01 12:59:42;;;;;;;8.02;2.05;;;15.10;63.30;;;;;;5107325;28;20168;-81
2021/11/01 13:02:13;;;;;;;3.25;1.65;;;15.20;62.70;;;;;;5106360;28;20180;-81
2021/11/01 13:04:46;;;;;;;7.55;2.65;;;14.50;63.00;;;;;;5104239;28;20183;-81
2021/11/01 13:10:01;;;;;;;7.18;1.63;;;14.80;64.50;;;;;;5105381;28;20187;-81
2021/11/01 13:20:38;;;;;;;5.88;3.30;;;14.90;63.90;;;;;;5122292;28;20167;-81
2021/11/01 13:23:05;;;;;;;1.60;1.50;;;15.00;64.60;;;;;;5112587;28;20187;-81
2021/11/01 13:25:58;;;;;;;6.95;1.73;;;15.00;63.80;;;;;;5083366;28;20732;-81
2021/11/01 13:37:20;;;;;;;4.35;1.50;;;14.90;64.00;;;;;;5101400;28;20174;-81
2021/11/01 13:39:58;;;;;;;3.65;1.50;;;14.90;64.50;;;;;;5098848;28;20168;-81
2021/11/01 13:42:24;;;;;;;9.43;2.05;;;15.00;64.70;;;;;;5099088;28;20175;-81
2021/11/01 13:44:50;;;;;;;6.47;1.77;;;15.20;64.20;;;;;;5097062;28;20562;-81
2021/11/01 13:47:17;;;;;;;6.10;2.60;;;15.10;63.10;;;;;;5094732;28;20455;-80
2021/11/01 13:49:45;;;;;;;4.70;1.42;;;15.10;62.80;;;;;;5095904;28;20204;-81
2021/11/01 13:55:21;;;;;;;2.40;1.70;;;14.90;64.00;;;;;;5100701;28;20204;-80
2021/11/01 13:58:04;;;;;;;5.00;1.60;;;14.60;64.10;;;;;;5100712;28;20157;-81
2021/11/01 14:14:16;;;;;;;5.30;1.92;;;14.60;63.60;;;;;;5102329;28;20556;-81
2021/11/01 15:03:07;;;;;;;1.38;1.27;;;13.20;66.60;;;;;;5088679;28;20221;-82
2021/11/01 15:11:01;;;;;;;2.80;1.35;;;12.30;71.80;;;;;;5101205;28;20175;-82
2021/11/01 16:18:00;;;;;;;7.28;1.50;;;12.10;81.80;;;;;;5123597;28;20197;-81
2021/11/01 16:20:26;;;;;;;4.13;1.60;;;12.00;81.00;;;;;;5121892;28;20180;-81
2021/11/01 16:23:02;;;;;;;3.95;2.10;;;12.10;81.00;;;;;;5125067;28;20238;-81
2021/11/01 16:25:30;;;;;;;2.10;1.38;;;12.20;80.60;;;;;;5129661;28;20150;-81
2021/11/01 16:27:55;;;;;;;2.25;2.15;;;12.20;79.80;;;;;;5130301;28;20183;-82
2021/11/01 16:30:23;;;;;;;3.70;1.90;;;12.20;79.50;;;;;;5128788;28;20253;-81
2021/11/01 16:32:58;;;;;;;3.28;2.60;;;11.90;79.20;;;;;;5127516;28;20205;-81
2021/11/01 16:35:31;;;;;;;2.58;2.38;;;11.80;79.40;;;;;;5126226;28;20288;-80
2021/11/01 16:38:21;;;;;;;2.17;1.90;;;11.90;80.00;;;;;;5129442;28;20159;-80
2021/11/01 16:40:50;;;;;;;2.47;2.28;;;11.90;80.10;;;;;;5129715;28;20198;-80
2021/11/01 16:43:18;;;;;;;3.35;2.83;;;11.90;79.80;;;;;;5123980;28;20242;-81
2021/11/01 16:45:46;;;;;;;3.40;2.13;;;12.00;79.70;;;;;;5126809;28;20175;-81
2021/11/01 16:48:12;;;;;;;2.60;2.33;;;12.00;79.70;;;;;;5119701;28;20661;-80
2021/11/01 16:50:39;;;;;;;3.28;2.17;;;12.10;79.80;;;;;;5122350;28;20183;-81
2021/11/01 16:53:05;;;;;;;6.57;2.78;;;12.00;79.40;;;;;;5123014;28;20183;-81
2021/11/01 16:58:12;;;;;;;5.57;2.70;;;11.80;79.30;;;;;;5107496;28;20176;-81
2021/11/01 17:00:47;;;;;;;2.47;2.28;;;11.70;79.60;;;;;;5106659;28;20202;-80
2021/11/01 18:40:04;;;;;;;4.70;3.17;;;11.10;80.00;;;;;;5107964;28;20183;-81
2021/11/01 18:53:07;;;;;;;3.80;3.17;;;10.80;81.20;;;;;;5103845;28;20226;-81
2021/11/01 18:55:33;;;;;;;3.38;3.08;;;10.90;81.30;;;;;;5104328;28;20196;-82
2021/11/01 18:58:01;;;;;;;8.80;4.40;;;11.00;81.00;;;;;;5101617;28;20583;-83
2021/11/01 19:00:28;;;;;;;5.25;4.53;;;11.00;80.60;;;;;;5101773;28;20172;-83
2021/11/01 19:02:57;;;;;;;7.50;3.90;;;11.00;80.50;;;;;;5104290;28;20172;-82
2021/11/01 19:05:40;;;;;;;5.40;4.88;;;11.00;80.60;;;;;;5105368;28;20231;-82
2021/11/01 20:05:51;;;;;;;6.37;4.43;;;10.60;80.00;;;;;;5085572;28;20181;-81
2021/11/01 21:26:15;;;;;;;5.20;4.07;;;10.00;81.10;;;;;;5129338;28;20169;-83
2021/11/01 21:28:41;;;;;;;6.47;3.55;;;10.10;81.40;;;;;;5127063;28;20206;-82
2021/11/01 21:31:07;;;;;;;6.57;3.73;;;10.00;81.00;;;;;;5127293;28;20653;-82
2021/11/01 21:33:34;;;;;;;3.57;3.27;;;9.90;81.40;;;;;;5127496;27;20202;-82
2021/11/01 21:36:06;;;;;;;4.72;3.55;;;10.10;81.00;;;;;;5127015;28;20510;-82
2021/11/01 21:38:32;;;;;;;5.07;3.25;;;10.00;80.40;;;;;;5128222;27;20181;-82
2021/11/01 21:40:59;;;;;;;10.20;3.60;;;9.90;80.40;;;;;;5126087;28;20178;-82
2021/11/01 21:43:24;;;;;;;3.97;3.50;;;9.80;80.30;;;;;;5124964;28;20191;-82
2021/11/01 21:45:50;;;;;;;7.13;3.80;;;9.90;80.60;;;;;;5126616;28;20182;-82
2021/11/01 21:48:16;;;;;;;5.28;3.55;;;9.80;80.60;;;;;;5126617;28;20203;-82
2021/11/01 21:50:45;;;;;;;6.37;5.10;;;9.90;80.90;;;;;;5125702;28;20190;-82
2021/11/01 21:53:15;;;;;;;4.78;3.42;;;9.90;80.50;;;;;;5127483;27;20416;-81
2021/11/01 21:55:42;;;;;;;2.97;2.70;;;9.90;80.30;;;;;;5125999;28;20207;-81
2021/11/01 21:58:29;;;;;;;3.40;3.10;;;9.80;80.00;;;;;;5126937;28;20175;-82
2021/11/01 22:22:00;;;;;;;4.45;2.40;;;9.90;79.70;;;;;;5106738;28;20186;-82
2021/11/01 22:24:31;;;;;;;3.08;2.30;;;10.00;79.40;;;;;;5105192;28;20223;-82
2021/11/01 22:40:11;;;;;;;7.03;2.85;;;9.80;79.60;;;;;;5101760;28;20167;-81
2021/11/01 22:58:39;;;;;;;8.25;3.90;;;9.80;80.20;;;;;;5110900;28;20186;-82
2021/11/01 23:01:24;;;;;;;12.38;4.35;;;9.80;80.20;;;;;;5104023;28;20184;-82
2021/11/01 23:33:29;;;;;;;11.15;5.20;;;9.80;80.80;;;;;;5082110;28;20198;-82
2021/11/01 23:35:55;;;;;;;10.83;6.20;;;10.00;80.90;;;;;;5082005;28;20325;-82
2021/11/01 23:38:22;;;;;;;13.32;5.43;;;10.00;80.80;;;;;;5099074;28;20429;-82
2021/11/01 23:40:48;;;;;;;10.55;4.95;;;10.10;80.70;;;;;;5099865;28;20184;-81
2021/11/01 23:43:14;;;;;;;12.85;5.43;;;10.00;80.70;;;;;;5097970;28;20164;-82
2021/11/01 23:45:42;;;;;;;11.80;5.88;;;10.00;80.80;;;;;;5098569;28;20217;-82
2021/11/01 23:48:08;;;;;;;11.70;5.03;;;10.00;80.80;;;;;;5098518;28;20179;-82
2021/11/01 23:50:34;;;;;;;10.55;5.13;;;9.90;80.80;;;;;;5098921;28;20229;-82
2021/11/01 23:53:16;;;;;;;13.60;5.32;;;10.00;81.70;;;;;;5097295;28;20187;-82
2021/11/01 23:55:43;;;;;;;14.07;5.10;;;10.00;80.90;;;;;;5082449;28;20206;-82
2021/11/01 23:58:09;;;;;;;9.57;5.00;;;10.00;80.60;;;;;;5098444;28;20200;-82
